sensor_id;sensor_type;location;lat;lon;timestamp;P1;durP1;ratioP1;P2;durP2;ratioP2
77591;SDS011;66891;46.884;17.436;2023-08-06T00:00:42;4.60;;;0.60;;
77591;SDS011;66891;46.884;17.436;2023-08-06T00:03:10;5.00;;;0.65;;
77591;SDS011;66891;46.884;17.436;2023-08-06T00:05:41;3.63;;;0.70;;
77591;SDS011;66891;46.884;17.436;2023-08-06T00:08:09;4.07;;;0.60;;
77591;SDS011;66891;46.884;17.436;2023-08-06T00:10:37;3.43;;;0.50;;
77591;SDS011;66891;46.884;17.436;2023-08-06T00:13:08;3.03;;;0.55;;
77591;SDS011;66891;46.884;17.436;2023-08-06T00:15:36;3.90;;;0.55;;
77591;SDS011;66891;46.884;17.436;2023-08-06T00:18:04;4.15;;;0.65;;
77591;SDS011;66891;46.884;17.436;2023-08-06T00:20:31;3.53;;;0.60;;
77591;SDS011;66891;46.884;17.436;2023-08-06T00:22:59;2.80;;;0.40;;
77591;SDS011;66891;46.884;17.436;2023-08-06T00:25:26;4.55;;;0.60;;
77591;SDS011;66891;46.884;17.436;2023-08-06T00:27:54;4.15;;;0.60;;
77591;SDS011;66891;46.884;17.436;2023-08-06T00:30:24;3.03;;;0.52;;
77591;SDS011;66891;46.884;17.436;2023-08-06T00:32:52;3.80;;;0.50;;
77591;SDS011;66891;46.884;17.436;2023-08-06T00:35:20;3.40;;;0.50;;
77591;SDS011;66891;46.884;17.436;2023-08-06T00:37:47;2.88;;;0.50;;
77591;SDS011;66891;46.884;17.436;2023-08-06T00:40:15;4.75;;;0.60;;
77591;SDS011;66891;46.884;17.436;2023-08-06T00:42:42;3.75;;;0.50;;
77591;SDS011;66891;46.884;17.436;2023-08-06T00:45:11;3.25;;;0.60;;
77591;SDS011;66891;46.884;17.436;2023-08-06T00:47:40;2.10;;;0.30;;
77591;SDS011;66891;46.884;17.436;2023-08-06T00:50:08;4.70;;;0.45;;
77591;SDS011;66891;46.884;17.436;2023-08-06T00:52:36;2.90;;;0.50;;
77591;SDS011;66891;46.884;17.436;2023-08-06T00:55:04;3.42;;;0.70;;
77591;SDS011;66891;46.884;17.436;2023-08-06T00:57:33;2.42;;;0.50;;
77591;SDS011;66891;46.884;17.436;2023-08-06T01:00:00;3.83;;;0.60;;
77591;SDS011;66891;46.884;17.436;2023-08-06T01:02:29;2.83;;;0.40;;
77591;SDS011;66891;46.884;17.436;2023-08-06T01:04:57;3.40;;;0.60;;
77591;SDS011;66891;46.884;17.436;2023-08-06T01:07:29;4.38;;;0.52;;
77591;SDS011;66891;46.884;17.436;2023-08-06T01:10:10;3.38;;;0.60;;
77591;SDS011;66891;46.884;17.436;2023-08-06T01:12:51;5.63;;;0.50;;
77591;SDS011;66891;46.884;17.436;2023-08-06T01:15:28;3.40;;;0.60;;
77591;SDS011;66891;46.884;17.436;2023-08-06T01:17:58;3.30;;;0.60;;
77591;SDS011;66891;46.884;17.436;2023-08-06T01:20:31;4.47;;;0.50;;
77591;SDS011;66891;46.884;17.436;2023-08-06T01:22:58;3.38;;;0.60;;
77591;SDS011;66891;46.884;17.436;2023-08-06T01:25:26;3.07;;;0.50;;
77591;SDS011;66891;46.884;17.436;2023-08-06T01:28:01;3.80;;;0.50;;
77591;SDS011;66891;46.884;17.436;2023-08-06T01:30:33;3.40;;;0.40;;
77591;SDS011;66891;46.884;17.436;2023-08-06T01:33:05;2.45;;;0.30;;
77591;SDS011;66891;46.884;17.436;2023-08-06T01:35:41;2.13;;;0.30;;
77591;SDS011;66891;46.884;17.436;2023-08-06T01:38:09;2.70;;;0.40;;
77591;SDS011;66891;46.884;17.436;2023-08-06T01:40:37;2.70;;;0.30;;
77591;SDS011;66891;46.884;17.436;2023-08-06T01:43:04;2.92;;;0.30;;
77591;SDS011;66891;46.884;17.436;2023-08-06T01:45:32;1.92;;;0.30;;
77591;SDS011;66891;46.884;17.436;2023-08-06T01:47:59;2.70;;;0.35;;
77591;SDS011;66891;46.884;17.436;2023-08-06T01:50:26;1.97;;;0.30;;
77591;SDS011;66891;46.884;17.436;2023-08-06T01:52:55;2.03;;;0.30;;
77591;SDS011;66891;46.884;17.436;2023-08-06T01:55:22;2.25;;;0.30;;
77591;SDS011;66891;46.884;17.436;2023-08-06T01:57:50;1.90;;;0.38;;
77591;SDS011;66891;46.884;17.436;2023-08-06T02:00:17;2.30;;;0.30;;
77591;SDS011;66891;46.884;17.436;2023-08-06T02:02:46;3.53;;;0.30;;
77591;SDS011;66891;46.884;17.436;2023-08-06T02:05:14;4.63;;;0.40;;
77591;SDS011;66891;46.884;17.436;2023-08-06T02:07:41;1.75;;;0.30;;
77591;SDS011;66891;46.884;17.436;2023-08-06T02:10:10;2.38;;;0.30;;
77591;SDS011;66891;46.884;17.436;2023-08-06T02:12:39;2.55;;;0.30;;
77591;SDS011;66891;46.884;17.436;2023-08-06T02:15:07;2.50;;;0.30;;
77591;SDS011;66891;46.884;17.436;2023-08-06T02:17:35;3.10;;;0.30;;
77591;SDS011;66891;46.884;17.436;2023-08-06T02:20:02;2.35;;;0.30;;
77591;SDS011;66891;46.884;17.436;2023-08-06T02:22:30;3.47;;;0.30;;
77591;SDS011;66891;46.884;17.436;2023-08-06T02:24:57;1.80;;;0.30;;
77591;SDS011;66891;46.884;17.436;2023-08-06T02:27:26;1.90;;;0.30;;
77591;SDS011;66891;46.884;17.436;2023-08-06T02:29:53;2.90;;;0.30;;
77591;SDS011;66891;46.884;17.436;2023-08-06T02:32:21;2.53;;;0.40;;
77591;SDS011;66891;46.884;17.436;2023-08-06T02:34:48;2.00;;;0.30;;
77591;SDS011;66891;46.884;17.436;2023-08-06T02:37:15;2.92;;;0.30;;
77591;SDS011;66891;46.884;17.436;2023-08-06T02:39:42;2.20;;;0.30;;
77591;SDS011;66891;46.884;17.436;2023-08-06T02:42:10;1.90;;;0.30;;
77591;SDS011;66891;46.884;17.436;2023-08-06T02:44:38;2.03;;;0.32;;
77591;SDS011;66891;46.884;17.436;2023-08-06T02:47:06;1.67;;;0.30;;
77591;SDS011;66891;46.884;17.436;2023-08-06T02:49:33;2.83;;;0.30;;
77591;SDS011;66891;46.884;17.436;2023-08-06T02:52:00;2.40;;;0.20;;
77591;SDS011;66891;46.884;17.436;2023-08-06T02:54:27;2.60;;;0.20;;
77591;SDS011;66891;46.884;17.436;2023-08-06T02:56:55;1.70;;;0.30;;
77591;SDS011;66891;46.884;17.436;2023-08-06T02:59:22;3.28;;;0.30;;
77591;SDS011;66891;46.884;17.436;2023-08-06T03:01:50;1.67;;;0.30;;
77591;SDS011;66891;46.884;17.436;2023-08-06T03:04:18;1.63;;;0.30;;
77591;SDS011;66891;46.884;17.436;2023-08-06T03:06:45;1.60;;;0.30;;
77591;SDS011;66891;46.884;17.436;2023-08-06T03:09:13;1.30;;;0.20;;
77591;SDS011;66891;46.884;17.436;2023-08-06T03:11:40;1.88;;;0.20;;
77591;SDS011;66891;46.884;17.436;2023-08-06T03:14:07;1.45;;;0.30;;
77591;SDS011;66891;46.884;17.436;2023-08-06T03:16:35;2.10;;;0.23;;
77591;SDS011;66891;46.884;17.436;2023-08-06T03:19:04;3.35;;;0.20;;
77591;SDS011;66891;46.884;17.436;2023-08-06T03:21:31;4.75;;;0.28;;
77591;SDS011;66891;46.884;17.436;2023-08-06T03:23:58;2.17;;;0.20;;
77591;SDS011;66891;46.884;17.436;2023-08-06T03:26:25;1.70;;;0.25;;
77591;SDS011;66891;46.884;17.436;2023-08-06T03:28:54;1.23;;;0.20;;
77591;SDS011;66891;46.884;17.436;2023-08-06T03:31:21;1.15;;;0.20;;
77591;SDS011;66891;46.884;17.436;2023-08-06T03:33:48;2.03;;;0.30;;
77591;SDS011;66891;46.884;17.436;2023-08-06T03:36:17;2.80;;;0.20;;
77591;SDS011;66891;46.884;17.436;2023-08-06T03:38:44;1.35;;;0.30;;
77591;SDS011;66891;46.884;17.436;2023-08-06T03:41:11;2.47;;;0.30;;
77591;SDS011;66891;46.884;17.436;2023-08-06T03:43:38;2.13;;;0.30;;
77591;SDS011;66891;46.884;17.436;2023-08-06T03:46:06;1.33;;;0.20;;
77591;SDS011;66891;46.884;17.436;2023-08-06T03:48:33;3.03;;;0.30;;
77591;SDS011;66891;46.884;17.436;2023-08-06T03:51:00;1.40;;;0.20;;
77591;SDS011;66891;46.884;17.436;2023-08-06T03:53:30;1.80;;;0.20;;
77591;SDS011;66891;46.884;17.436;2023-08-06T03:55:57;1.73;;;0.30;;
77591;SDS011;66891;46.884;17.436;2023-08-06T03:58:26;1.15;;;0.20;;
77591;SDS011;66891;46.884;17.436;2023-08-06T04:00:57;2.88;;;0.20;;
77591;SDS011;66891;46.884;17.436;2023-08-06T04:03:25;1.98;;;0.35;;
77591;SDS011;66891;46.884;17.436;2023-08-06T04:05:53;4.10;;;0.20;;
77591;SDS011;66891;46.884;17.436;2023-08-06T04:08:21;1.48;;;0.20;;
77591;SDS011;66891;46.884;17.436;2023-08-06T04:10:50;1.30;;;0.30;;
77591;SDS011;66891;46.884;17.436;2023-08-06T04:13:18;1.70;;;0.30;;
77591;SDS011;66891;46.884;17.436;2023-08-06T04:15:46;2.65;;;0.30;;
77591;SDS011;66891;46.884;17.436;2023-08-06T04:18:14;3.43;;;0.30;;
77591;SDS011;66891;46.884;17.436;2023-08-06T04:20:44;1.88;;;0.20;;
77591;SDS011;66891;46.884;17.436;2023-08-06T04:23:12;1.73;;;0.20;;
77591;SDS011;66891;46.884;17.436;2023-08-06T04:25:41;1.45;;;0.20;;
77591;SDS011;66891;46.884;17.436;2023-08-06T04:28:10;2.67;;;0.20;;
77591;SDS011;66891;46.884;17.436;2023-08-06T04:30:37;2.13;;;0.20;;
77591;SDS011;66891;46.884;17.436;2023-08-06T04:33:05;1.35;;;0.20;;
77591;SDS011;66891;46.884;17.436;2023-08-06T04:35:32;2.10;;;0.20;;
77591;SDS011;66891;46.884;17.436;2023-08-06T04:37:59;1.88;;;0.28;;
77591;SDS011;66891;46.884;17.436;2023-08-06T04:40:26;2.15;;;0.20;;
77591;SDS011;66891;46.884;17.436;2023-08-06T04:42:54;3.23;;;0.30;;
77591;SDS011;66891;46.884;17.436;2023-08-06T04:45:22;1.10;;;0.25;;
77591;SDS011;66891;46.884;17.436;2023-08-06T04:47:51;1.73;;;0.30;;
77591;SDS011;66891;46.884;17.436;2023-08-06T04:50:19;1.00;;;0.20;;
77591;SDS011;66891;46.884;17.436;2023-08-06T04:52:46;1.58;;;0.30;;
77591;SDS011;66891;46.884;17.436;2023-08-06T04:55:14;1.77;;;0.30;;
77591;SDS011;66891;46.884;17.436;2023-08-06T04:57:41;1.65;;;0.30;;
77591;SDS011;66891;46.884;17.436;2023-08-06T05:00:08;1.70;;;0.20;;
77591;SDS011;66891;46.884;17.436;2023-08-06T05:02:37;2.38;;;0.28;;
77591;SDS011;66891;46.884;17.436;2023-08-06T05:05:05;1.48;;;0.20;;
77591;SDS011;66891;46.884;17.436;2023-08-06T05:07:33;2.40;;;0.20;;
77591;SDS011;66891;46.884;17.436;2023-08-06T05:10:00;1.65;;;0.20;;
77591;SDS011;66891;46.884;17.436;2023-08-06T05:12:27;2.50;;;0.30;;
77591;SDS011;66891;46.884;17.436;2023-08-06T05:14:55;2.35;;;0.20;;
77591;SDS011;66891;46.884;17.436;2023-08-06T05:17:22;1.20;;;0.20;;
77591;SDS011;66891;46.884;17.436;2023-08-06T05:19:52;1.87;;;0.20;;
77591;SDS011;66891;46.884;17.436;2023-08-06T05:22:19;2.10;;;0.30;;
77591;SDS011;66891;46.884;17.436;2023-08-06T05:24:46;1.30;;;0.30;;
77591;SDS011;66891;46.884;17.436;2023-08-06T05:27:14;1.65;;;0.20;;
77591;SDS011;66891;46.884;17.436;2023-08-06T05:29:41;1.50;;;0.30;;
77591;SDS011;66891;46.884;17.436;2023-08-06T05:32:09;2.57;;;0.33;;
77591;SDS011;66891;46.884;17.436;2023-08-06T05:34:37;2.00;;;0.30;;
77591;SDS011;66891;46.884;17.436;2023-08-06T05:37:06;2.08;;;0.30;;
77591;SDS011;66891;46.884;17.436;2023-08-06T05:39:33;3.15;;;0.25;;
77591;SDS011;66891;46.884;17.436;2023-08-06T05:42:00;1.63;;;0.25;;
77591;SDS011;66891;46.884;17.436;2023-08-06T05:44:28;1.93;;;0.30;;
77591;SDS011;66891;46.884;17.436;2023-08-06T05:46:55;1.27;;;0.20;;
77591;SDS011;66891;46.884;17.436;2023-08-06T05:49:22;2.67;;;0.30;;
77591;SDS011;66891;46.884;17.436;2023-08-06T05:51:49;2.40;;;0.30;;
77591;SDS011;66891;46.884;17.436;2023-08-06T05:54:21;2.85;;;0.57;;
77591;SDS011;66891;46.884;17.436;2023-08-06T05:56:49;2.30;;;0.30;;
77591;SDS011;66891;46.884;17.436;2023-08-06T05:59:16;2.15;;;0.30;;
77591;SDS011;66891;46.884;17.436;2023-08-06T06:01:43;1.83;;;0.30;;
77591;SDS011;66891;46.884;17.436;2023-08-06T06:04:11;1.90;;;0.30;;
77591;SDS011;66891;46.884;17.436;2023-08-06T06:06:38;1.83;;;0.30;;
77591;SDS011;66891;46.884;17.436;2023-08-06T06:09:05;2.43;;;0.37;;
77591;SDS011;66891;46.884;17.436;2023-08-06T06:11:34;1.75;;;0.20;;
77591;SDS011;66891;46.884;17.436;2023-08-06T06:14:01;2.47;;;0.40;;
77591;SDS011;66891;46.884;17.436;2023-08-06T06:16:29;3.22;;;0.32;;
77591;SDS011;66891;46.884;17.436;2023-08-06T06:18:56;2.08;;;0.30;;
77591;SDS011;66891;46.884;17.436;2023-08-06T06:21:24;2.60;;;0.30;;
77591;SDS011;66891;46.884;17.436;2023-08-06T06:23:51;3.13;;;0.30;;
77591;SDS011;66891;46.884;17.436;2023-08-06T06:26:19;2.28;;;0.32;;
77591;SDS011;66891;46.884;17.436;2023-08-06T06:28:48;2.20;;;0.30;;
77591;SDS011;66891;46.884;17.436;2023-08-06T06:31:15;2.30;;;0.40;;
77591;SDS011;66891;46.884;17.436;2023-08-06T06:33:43;3.47;;;0.40;;
77591;SDS011;66891;46.884;17.436;2023-08-06T06:36:10;2.30;;;0.45;;
77591;SDS011;66891;46.884;17.436;2023-08-06T06:38:38;2.80;;;0.30;;
77591;SDS011;66891;46.884;17.436;2023-08-06T06:41:06;1.92;;;0.30;;
77591;SDS011;66891;46.884;17.436;2023-08-06T06:43:33;2.75;;;0.40;;
77591;SDS011;66891;46.884;17.436;2023-08-06T06:46:02;2.20;;;0.30;;
77591;SDS011;66891;46.884;17.436;2023-08-06T06:48:31;2.25;;;0.50;;
77591;SDS011;66891;46.884;17.436;2023-08-06T06:50:59;3.00;;;0.57;;
77591;SDS011;66891;46.884;17.436;2023-08-06T06:53:28;2.55;;;0.40;;
77591;SDS011;66891;46.884;17.436;2023-08-06T06:55:56;3.33;;;0.50;;
77591;SDS011;66891;46.884;17.436;2023-08-06T06:58:27;3.13;;;0.37;;
77591;SDS011;66891;46.884;17.436;2023-08-06T07:00:55;3.42;;;0.30;;
77591;SDS011;66891;46.884;17.436;2023-08-06T07:03:24;3.15;;;0.40;;
77591;SDS011;66891;46.884;17.436;2023-08-06T07:05:56;4.03;;;0.47;;
77591;SDS011;66891;46.884;17.436;2023-08-06T07:08:25;3.50;;;0.63;;
77591;SDS011;66891;46.884;17.436;2023-08-06T07:10:59;3.77;;;0.50;;
77591;SDS011;66891;46.884;17.436;2023-08-06T07:13:28;4.70;;;0.60;;
77591;SDS011;66891;46.884;17.436;2023-08-06T07:15:56;2.75;;;0.40;;
77591;SDS011;66891;46.884;17.436;2023-08-06T07:18:25;3.28;;;0.40;;
77591;SDS011;66891;46.884;17.436;2023-08-06T07:20:52;2.90;;;0.50;;
77591;SDS011;66891;46.884;17.436;2023-08-06T07:23:24;4.60;;;0.40;;
77591;SDS011;66891;46.884;17.436;2023-08-06T07:25:52;3.00;;;0.40;;
77591;SDS011;66891;46.884;17.436;2023-08-06T07:28:20;3.47;;;0.30;;
77591;SDS011;66891;46.884;17.436;2023-08-06T07:30:47;2.65;;;0.38;;
77591;SDS011;66891;46.884;17.436;2023-08-06T07:33:15;4.00;;;0.38;;
77591;SDS011;66891;46.884;17.436;2023-08-06T07:35:52;2.90;;;0.50;;
77591;SDS011;66891;46.884;17.436;2023-08-06T07:38:52;3.92;;;0.60;;
77591;SDS011;66891;46.884;17.436;2023-08-06T07:41:24;2.90;;;0.50;;
77591;SDS011;66891;46.884;17.436;2023-08-06T07:43:52;2.47;;;0.40;;
77591;SDS011;66891;46.884;17.436;2023-08-06T07:46:20;3.38;;;0.40;;
77591;SDS011;66891;46.884;17.436;2023-08-06T07:48:53;2.00;;;0.40;;
77591;SDS011;66891;46.884;17.436;2023-08-06T07:51:22;2.97;;;0.38;;
77591;SDS011;66891;46.884;17.436;2023-08-06T07:53:49;2.60;;;0.40;;
77591;SDS011;66891;46.884;17.436;2023-08-06T07:56:17;2.67;;;0.40;;
77591;SDS011;66891;46.884;17.436;2023-08-06T07:58:46;4.22;;;0.60;;
77591;SDS011;66891;46.884;17.436;2023-08-06T08:01:14;2.90;;;0.40;;
77591;SDS011;66891;46.884;17.436;2023-08-06T08:03:42;2.30;;;0.40;;
77591;SDS011;66891;46.884;17.436;2023-08-06T08:06:09;2.25;;;0.40;;
77591;SDS011;66891;46.884;17.436;2023-08-06T08:08:40;3.83;;;0.40;;
77591;SDS011;66891;46.884;17.436;2023-08-06T08:11:08;2.50;;;0.52;;
77591;SDS011;66891;46.884;17.436;2023-08-06T08:13:45;3.20;;;0.40;;
77591;SDS011;66891;46.884;17.436;2023-08-06T08:16:12;2.30;;;0.40;;
77591;SDS011;66891;46.884;17.436;2023-08-06T08:18:41;2.67;;;0.40;;
77591;SDS011;66891;46.884;17.436;2023-08-06T08:21:08;3.05;;;0.40;;
77591;SDS011;66891;46.884;17.436;2023-08-06T08:23:37;2.13;;;0.32;;
77591;SDS011;66891;46.884;17.436;2023-08-06T08:26:08;2.93;;;0.40;;
77591;SDS011;66891;46.884;17.436;2023-08-06T08:28:36;3.30;;;0.60;;
77591;SDS011;66891;46.884;17.436;2023-08-06T08:31:03;2.83;;;0.40;;
77591;SDS011;66891;46.884;17.436;2023-08-06T08:33:34;3.25;;;0.40;;
77591;SDS011;66891;46.884;17.436;2023-08-06T08:36:02;3.30;;;0.40;;
77591;SDS011;66891;46.884;17.436;2023-08-06T08:38:29;2.10;;;0.40;;
77591;SDS011;66891;46.884;17.436;2023-08-06T08:40:58;2.97;;;0.40;;
77591;SDS011;66891;46.884;17.436;2023-08-06T08:43:26;2.70;;;0.50;;
77591;SDS011;66891;46.884;17.436;2023-08-06T08:45:54;2.33;;;0.40;;
77591;SDS011;66891;46.884;17.436;2023-08-06T08:48:25;3.05;;;0.45;;
77591;SDS011;66891;46.884;17.436;2023-08-06T08:50:53;3.30;;;0.50;;
77591;SDS011;66891;46.884;17.436;2023-08-06T08:53:23;2.67;;;0.50;;
77591;SDS011;66891;46.884;17.436;2023-08-06T08:55:51;3.28;;;0.60;;
77591;SDS011;66891;46.884;17.436;2023-08-06T08:58:23;2.67;;;0.50;;
77591;SDS011;66891;46.884;17.436;2023-08-06T09:00:51;1.95;;;0.38;;
77591;SDS011;66891;46.884;17.436;2023-08-06T09:03:19;3.90;;;0.50;;
77591;SDS011;66891;46.884;17.436;2023-08-06T09:05:48;2.20;;;0.40;;
77591;SDS011;66891;46.884;17.436;2023-08-06T09:08:19;2.50;;;0.50;;
77591;SDS011;66891;46.884;17.436;2023-08-06T09:10:50;2.60;;;0.50;;
77591;SDS011;66891;46.884;17.436;2023-08-06T09:13:19;2.15;;;0.40;;
77591;SDS011;66891;46.884;17.436;2023-08-06T09:15:49;2.90;;;0.60;;
77591;SDS011;66891;46.884;17.436;2023-08-06T09:18:24;2.45;;;0.50;;
77591;SDS011;66891;46.884;17.436;2023-08-06T09:20:55;2.45;;;0.40;;
77591;SDS011;66891;46.884;17.436;2023-08-06T09:23:27;2.30;;;0.50;;
77591;SDS011;66891;46.884;17.436;2023-08-06T09:25:56;3.10;;;0.50;;
77591;SDS011;66891;46.884;17.436;2023-08-06T09:28:24;2.23;;;0.40;;
77591;SDS011;66891;46.884;17.436;2023-08-06T09:30:53;3.60;;;0.60;;
77591;SDS011;66891;46.884;17.436;2023-08-06T09:33:22;2.42;;;0.50;;
77591;SDS011;66891;46.884;17.436;2023-08-06T09:35:50;3.22;;;0.50;;
77591;SDS011;66891;46.884;17.436;2023-08-06T09:38:18;3.65;;;0.65;;
77591;SDS011;66891;46.884;17.436;2023-08-06T09:40:46;2.90;;;0.50;;
77591;SDS011;66891;46.884;17.436;2023-08-06T09:43:14;2.83;;;0.50;;
77591;SDS011;66891;46.884;17.436;2023-08-06T09:45:41;2.63;;;0.50;;
77591;SDS011;66891;46.884;17.436;2023-08-06T09:48:13;3.15;;;0.50;;
77591;SDS011;66891;46.884;17.436;2023-08-06T09:50:43;3.42;;;0.68;;
77591;SDS011;66891;46.884;17.436;2023-08-06T09:53:12;3.83;;;0.60;;
77591;SDS011;66891;46.884;17.436;2023-08-06T09:55:40;2.45;;;0.40;;
77591;SDS011;66891;46.884;17.436;2023-08-06T09:58:08;2.47;;;0.50;;
77591;SDS011;66891;46.884;17.436;2023-08-06T10:00:39;2.38;;;0.50;;
77591;SDS011;66891;46.884;17.436;2023-08-06T10:03:06;4.25;;;0.50;;
77591;SDS011;66891;46.884;17.436;2023-08-06T10:05:38;2.17;;;0.40;;
77591;SDS011;66891;46.884;17.436;2023-08-06T10:08:06;2.55;;;0.60;;
77591;SDS011;66891;46.884;17.436;2023-08-06T10:10:34;2.50;;;0.60;;
77591;SDS011;66891;46.884;17.436;2023-08-06T10:13:01;3.03;;;0.50;;
77591;SDS011;66891;46.884;17.436;2023-08-06T10:15:33;2.90;;;0.50;;
77591;SDS011;66891;46.884;17.436;2023-08-06T10:18:03;2.80;;;0.40;;
77591;SDS011;66891;46.884;17.436;2023-08-06T10:20:32;2.83;;;0.60;;
77591;SDS011;66891;46.884;17.436;2023-08-06T10:23:03;2.50;;;0.50;;
77591;SDS011;66891;46.884;17.436;2023-08-06T10:25:31;2.65;;;0.50;;
77591;SDS011;66891;46.884;17.436;2023-08-06T10:28:07;2.58;;;0.40;;
77591;SDS011;66891;46.884;17.436;2023-08-06T10:30:45;4.23;;;0.50;;
77591;SDS011;66891;46.884;17.436;2023-08-06T10:33:13;2.97;;;0.68;;
77591;SDS011;66891;46.884;17.436;2023-08-06T10:35:43;2.95;;;0.60;;
77591;SDS011;66891;46.884;17.436;2023-08-06T10:38:14;3.90;;;0.70;;
77591;SDS011;66891;46.884;17.436;2023-08-06T10:40:48;2.83;;;0.63;;
77591;SDS011;66891;46.884;17.436;2023-08-06T10:43:26;2.77;;;0.60;;
77591;SDS011;66891;46.884;17.436;2023-08-06T10:45:55;3.55;;;0.57;;
77591;SDS011;66891;46.884;17.436;2023-08-06T10:48:30;3.35;;;0.40;;
77591;SDS011;66891;46.884;17.436;2023-08-06T10:51:00;3.17;;;0.57;;
77591;SDS011;66891;46.884;17.436;2023-08-06T10:53:30;3.20;;;0.47;;
77591;SDS011;66891;46.884;17.436;2023-08-06T10:56:00;2.53;;;0.40;;
77591;SDS011;66891;46.884;17.436;2023-08-06T10:58:30;2.63;;;0.50;;
77591;SDS011;66891;46.884;17.436;2023-08-06T11:00:59;1.65;;;0.30;;
77591;SDS011;66891;46.884;17.436;2023-08-06T11:03:26;2.92;;;0.50;;
77591;SDS011;66891;46.884;17.436;2023-08-06T11:05:54;2.25;;;0.45;;
77591;SDS011;66891;46.884;17.436;2023-08-06T11:08:25;2.57;;;0.50;;
77591;SDS011;66891;46.884;17.436;2023-08-06T11:10:54;3.72;;;0.73;;
77591;SDS011;66891;46.884;17.436;2023-08-06T11:13:29;2.80;;;0.50;;
77591;SDS011;66891;46.884;17.436;2023-08-06T11:15:58;4.90;;;0.80;;
77591;SDS011;66891;46.884;17.436;2023-08-06T11:18:25;5.18;;;0.60;;
77591;SDS011;66891;46.884;17.436;2023-08-06T11:20:53;3.03;;;0.50;;
77591;SDS011;66891;46.884;17.436;2023-08-06T11:23:20;2.83;;;0.50;;
77591;SDS011;66891;46.884;17.436;2023-08-06T11:25:47;2.92;;;0.40;;
77591;SDS011;66891;46.884;17.436;2023-08-06T11:28:16;4.63;;;0.60;;
77591;SDS011;66891;46.884;17.436;2023-08-06T11:30:48;1.98;;;0.38;;
77591;SDS011;66891;46.884;17.436;2023-08-06T11:33:19;2.27;;;0.40;;
77591;SDS011;66891;46.884;17.436;2023-08-06T11:35:48;2.58;;;0.30;;
77591;SDS011;66891;46.884;17.436;2023-08-06T11:38:16;4.28;;;0.55;;
77591;SDS011;66891;46.884;17.436;2023-08-06T11:40:43;2.50;;;0.50;;
77591;SDS011;66891;46.884;17.436;2023-08-06T11:43:11;3.15;;;0.70;;
77591;SDS011;66891;46.884;17.436;2023-08-06T11:45:41;3.50;;;0.43;;
77591;SDS011;66891;46.884;17.436;2023-08-06T11:48:08;4.00;;;0.50;;
77591;SDS011;66891;46.884;17.436;2023-08-06T11:50:36;3.33;;;0.50;;
77591;SDS011;66891;46.884;17.436;2023-08-06T11:53:05;4.18;;;0.55;;
77591;SDS011;66891;46.884;17.436;2023-08-06T11:55:33;2.85;;;0.40;;
77591;SDS011;66891;46.884;17.436;2023-08-06T11:58:02;3.40;;;0.43;;
77591;SDS011;66891;46.884;17.436;2023-08-06T12:00:33;2.50;;;0.30;;
77591;SDS011;66891;46.884;17.436;2023-08-06T12:03:02;3.53;;;0.40;;
77591;SDS011;66891;46.884;17.436;2023-08-06T12:05:32;3.17;;;0.40;;
77591;SDS011;66891;46.884;17.436;2023-08-06T12:08:04;3.15;;;0.50;;
77591;SDS011;66891;46.884;17.436;2023-08-06T12:10:32;2.40;;;0.40;;
77591;SDS011;66891;46.884;17.436;2023-08-06T12:13:00;3.75;;;0.40;;
77591;SDS011;66891;46.884;17.436;2023-08-06T12:15:27;3.15;;;0.63;;
77591;SDS011;66891;46.884;17.436;2023-08-06T12:17:58;5.38;;;0.73;;
77591;SDS011;66891;46.884;17.436;2023-08-06T12:20:26;4.15;;;0.52;;
77591;SDS011;66891;46.884;17.436;2023-08-06T12:22:55;5.50;;;0.90;;
77591;SDS011;66891;46.884;17.436;2023-08-06T12:25:22;4.47;;;0.80;;
77591;SDS011;66891;46.884;17.436;2023-08-06T12:27:50;3.45;;;0.80;;
77591;SDS011;66891;46.884;17.436;2023-08-06T12:30:18;4.85;;;1.00;;
77591;SDS011;66891;46.884;17.436;2023-08-06T12:32:46;4.93;;;0.80;;
77591;SDS011;66891;46.884;17.436;2023-08-06T12:35:13;4.23;;;0.40;;
77591;SDS011;66891;46.884;17.436;2023-08-06T12:37:42;4.10;;;0.70;;
77591;SDS011;66891;46.884;17.436;2023-08-06T12:40:10;5.78;;;1.10;;
77591;SDS011;66891;46.884;17.436;2023-08-06T12:42:58;4.70;;;0.60;;
77591;SDS011;66891;46.884;17.436;2023-08-06T12:45:26;5.35;;;0.80;;
77591;SDS011;66891;46.884;17.436;2023-08-06T12:47:53;4.80;;;1.03;;
77591;SDS011;66891;46.884;17.436;2023-08-06T12:50:20;5.57;;;0.93;;
77591;SDS011;66891;46.884;17.436;2023-08-06T12:52:49;5.88;;;1.08;;
77591;SDS011;66891;46.884;17.436;2023-08-06T12:55:16;6.05;;;1.73;;
77591;SDS011;66891;46.884;17.436;2023-08-06T12:57:44;5.20;;;1.33;;
77591;SDS011;66891;46.884;17.436;2023-08-06T13:00:24;4.30;;;0.90;;
77591;SDS011;66891;46.884;17.436;2023-08-06T13:02:51;6.20;;;1.55;;
77591;SDS011;66891;46.884;17.436;2023-08-06T13:05:18;4.97;;;1.38;;
77591;SDS011;66891;46.884;17.436;2023-08-06T13:07:46;5.20;;;1.40;;
77591;SDS011;66891;46.884;17.436;2023-08-06T13:10:15;4.05;;;0.98;;
77591;SDS011;66891;46.884;17.436;2023-08-06T13:12:43;4.90;;;0.70;;
77591;SDS011;66891;46.884;17.436;2023-08-06T13:15:10;4.47;;;0.95;;
77591;SDS011;66891;46.884;17.436;2023-08-06T13:17:37;4.68;;;0.95;;
77591;SDS011;66891;46.884;17.436;2023-08-06T13:20:05;5.10;;;1.25;;
77591;SDS011;66891;46.884;17.436;2023-08-06T13:22:33;4.65;;;1.10;;
77591;SDS011;66891;46.884;17.436;2023-08-06T13:25:01;4.60;;;0.90;;
77591;SDS011;66891;46.884;17.436;2023-08-06T13:27:30;5.13;;;1.17;;
77591;SDS011;66891;46.884;17.436;2023-08-06T13:29:57;3.88;;;0.82;;
77591;SDS011;66891;46.884;17.436;2023-08-06T13:32:24;3.92;;;0.90;;
77591;SDS011;66891;46.884;17.436;2023-08-06T13:34:52;5.15;;;1.33;;
77591;SDS011;66891;46.884;17.436;2023-08-06T13:37:20;3.20;;;0.60;;
77591;SDS011;66891;46.884;17.436;2023-08-06T13:39:47;4.63;;;0.60;;
77591;SDS011;66891;46.884;17.436;2023-08-06T13:42:14;3.50;;;0.63;;
77591;SDS011;66891;46.884;17.436;2023-08-06T13:44:43;3.42;;;0.70;;
77591;SDS011;66891;46.884;17.436;2023-08-06T13:47:10;4.85;;;0.60;;
77591;SDS011;66891;46.884;17.436;2023-08-06T13:49:37;4.20;;;0.70;;
77591;SDS011;66891;46.884;17.436;2023-08-06T13:52:05;3.05;;;0.60;;
77591;SDS011;66891;46.884;17.436;2023-08-06T13:54:47;3.63;;;0.80;;
77591;SDS011;66891;46.884;17.436;2023-08-06T13:57:15;3.50;;;0.68;;
77591;SDS011;66891;46.884;17.436;2023-08-06T13:59:45;3.15;;;0.70;;
77591;SDS011;66891;46.884;17.436;2023-08-06T14:02:13;3.10;;;0.70;;
77591;SDS011;66891;46.884;17.436;2023-08-06T14:04:40;3.38;;;0.60;;
77591;SDS011;66891;46.884;17.436;2023-08-06T14:07:08;3.97;;;0.60;;
77591;SDS011;66891;46.884;17.436;2023-08-06T14:09:35;3.60;;;0.50;;
77591;SDS011;66891;46.884;17.436;2023-08-06T14:12:02;4.20;;;0.60;;
77591;SDS011;66891;46.884;17.436;2023-08-06T14:14:30;3.60;;;0.47;;
77591;SDS011;66891;46.884;17.436;2023-08-06T14:16:59;2.83;;;0.50;;
77591;SDS011;66891;46.884;17.436;2023-08-06T14:19:27;3.50;;;0.50;;
77591;SDS011;66891;46.884;17.436;2023-08-06T14:21:55;4.03;;;0.65;;
77591;SDS011;66891;46.884;17.436;2023-08-06T14:24:22;4.07;;;0.70;;
77591;SDS011;66891;46.884;17.436;2023-08-06T14:26:50;3.07;;;0.40;;
77591;SDS011;66891;46.884;17.436;2023-08-06T14:29:19;3.10;;;0.60;;
77591;SDS011;66891;46.884;17.436;2023-08-06T14:31:46;3.15;;;0.60;;
77591;SDS011;66891;46.884;17.436;2023-08-06T14:34:15;3.15;;;0.60;;
77591;SDS011;66891;46.884;17.436;2023-08-06T14:36:42;3.28;;;0.63;;
77591;SDS011;66891;46.884;17.436;2023-08-06T14:39:09;3.20;;;0.50;;
77591;SDS011;66891;46.884;17.436;2023-08-06T14:41:37;3.35;;;0.70;;